Terminal Aerodrome Forecast
Issued by NWS

Home | Current Version | Previous Version | Text Only | Print | Product List | Glossary On
Versions: 1 2 3 4 5 6 7 8 9 10 11 12 13 14 15 16 17 18 19 20 21 22 23 24 25 26 27 28 29 30 31
000
FTUS45 KTWC 011738
TAFOLS
TAF
KOLS 011738Z 0118/0218 18009KT P6SM SCT080 BKN200
     FM012100 23010KT P6SM VCTS SCT060CB BKN100
      TEMPO 0122/0124 VRB12G25KT 4SM TSRA FEW040 BKN050CB
     FM020100 16010KT P6SM VCSH BKN060 OVC120
     FM020500 VRB03KT P6SM SCT100 BKN150=

USA.gov is the U.S. government's official web portal to all federal, state and local government web resources and services.